Terminal Aerodrome Forecast
Issued by NWS

Current Version | Previous Version | Graphics & Text | Print | Product List | Glossary On
Versions: 1 2 3 4 5 6 7 8 9 10 11 12 13 14 15 16 17 18 19 20
000
FTUS41 KILN 191100
TAFLCK
TAF
KLCK 191121Z 1912/2012 32004KT P6SM SCT035
     FM191400 28005KT P6SM SCT250
     FM192000 24007KT P6SM SKC
     FM201100 21007KT P6SM BKN100=

USA.gov is the U.S. government's official web portal to all federal, state and local government web resources and services.